Time;durP1;ratioP1;P1;durP2;ratioP2;P2;SDS_P1;SDS_P2;PMS_P1;PMS_P2;Temp;Humidity;BMP_temperature;BMP_pressure;BME280_temperature;BME280_humidity;BME280_pressure;Samples;Min_cycle;Max_cycle;Signal;HPM_P1;HPM_P2
2023/07/04 00:01:24;;;;;;;11.75;3.63;;;22.30;67.70;;;;;;7381763;19;20007;-71
2023/07/04 00:03:54;;;;;;;11.65;3.42;;;22.30;67.80;;;;;;7377829;19;20007;-70
2023/07/04 00:06:29;;;;;;;13.85;4.15;;;22.30;68.00;;;;;;7376806;19;20370;-71
2023/07/04 00:08:57;;;;;;;15.13;3.35;;;22.30;68.00;;;;;;7377335;19;20023;-71
2023/07/04 00:11:28;;;;;;;10.65;3.47;;;22.30;68.10;;;;;;7397342;19;20362;-70
2023/07/04 00:13:57;;;;;;;12.13;3.90;;;22.30;68.10;;;;;;7377856;19;20262;-71
2023/07/04 00:16:25;;;;;;;12.93;3.92;;;22.20;68.40;;;;;;7377591;19;20071;-71
2023/07/04 00:18:54;;;;;;;11.27;3.80;;;22.20;68.40;;;;;;7383243;19;20023;-69
2023/07/04 00:21:26;;;;;;;15.90;3.45;;;22.10;68.60;;;;;;7385511;19;20059;-70
2023/07/04 00:23:55;;;;;;;14.18;3.83;;;22.10;68.80;;;;;;7385865;19;20015;-69
2023/07/04 00:26:25;;;;;;;12.57;3.53;;;22.00;69.10;;;;;;7403985;19;20014;-70
2023/07/04 00:28:55;;;;;;;11.05;3.83;;;21.90;69.10;;;;;;7386364;19;20002;-69
2023/07/04 00:34:35;;;;;;;12.55;4.15;;;21.80;69.20;;;;;;7382741;19;19999;-70
2023/07/04 00:37:07;;;;;;;14.52;4.32;;;21.80;69.40;;;;;;7384657;19;20062;-71
2023/07/04 00:39:37;;;;;;;9.00;3.95;;;21.80;69.40;;;;;;7383141;19;20391;-70
2023/07/04 00:42:07;;;;;;;11.10;3.55;;;21.80;69.40;;;;;;7385316;19;20406;-71
2023/07/04 00:44:44;;;;;;;12.45;3.88;;;21.90;69.20;;;;;;7406549;19;20006;-71
2023/07/04 00:47:21;;;;;;;13.05;4.45;;;21.90;69.10;;;;;;7385707;19;20027;-70
2023/07/04 00:49:57;;;;;;;9.95;3.95;;;22.00;69.00;;;;;;7387277;19;20012;-71
2023/07/04 00:52:34;;;;;;;9.95;3.67;;;21.90;68.80;;;;;;7384862;19;20131;-71
2023/07/04 00:55:05;;;;;;;11.43;3.58;;;21.90;68.80;;;;;;7384252;19;20011;-69
2023/07/04 00:57:37;;;;;;;14.88;4.13;;;22.00;69.10;;;;;;7384540;19;20006;-70
2023/07/04 01:00:15;;;;;;;9.80;3.88;;;22.00;68.90;;;;;;7384104;19;20026;-70
2023/07/04 01:02:47;;;;;;;7.78;3.50;;;22.00;68.90;;;;;;7380917;19;20240;-70
2023/07/04 01:05:19;;;;;;;13.77;4.28;;;22.00;68.80;;;;;;7406110;19;20006;-70
2023/07/04 01:07:56;;;;;;;9.90;3.92;;;21.90;68.90;;;;;;7385724;19;20006;-70
2023/07/04 01:10:30;;;;;;;9.60;3.75;;;21.90;69.00;;;;;;7384956;19;20002;-69
2023/07/04 01:12:59;;;;;;;10.65;4.25;;;21.90;68.80;;;;;;7383659;19;20007;-70
2023/07/04 01:15:28;;;;;;;13.25;3.70;;;21.90;68.80;;;;;;7382127;19;20006;-70
2023/07/04 01:17:57;;;;;;;10.38;3.90;;;21.90;68.90;;;;;;7383841;19;20011;-70
2023/07/04 01:20:26;;;;;;;12.73;4.25;;;21.80;69.20;;;;;;7404745;19;20015;-70
2023/07/04 01:23:04;;;;;;;8.68;4.10;;;21.80;69.40;;;;;;7380900;19;20015;-70
2023/07/04 01:25:41;;;;;;;13.90;4.55;;;21.70;69.50;;;;;;7384536;19;20010;-69
2023/07/04 01:28:15;;;;;;;9.05;3.85;;;21.70;69.50;;;;;;7381540;19;20007;-69
2023/07/04 01:30:47;;;;;;;12.48;4.43;;;21.70;69.80;;;;;;7382759;19;20014;-70
2023/07/04 01:33:16;;;;;;;11.45;4.35;;;21.60;70.10;;;;;;7383618;19;20006;-70
2023/07/04 01:35:45;;;;;;;9.02;4.18;;;21.60;70.30;;;;;;7382603;19;20099;-70
2023/07/04 01:38:13;;;;;;;11.05;4.10;;;21.60;70.40;;;;;;7402053;19;20086;-69
2023/07/04 01:40:42;;;;;;;14.05;4.47;;;21.50;70.20;;;;;;7382227;19;20062;-69
2023/07/04 01:43:13;;;;;;;12.93;3.92;;;21.50;70.00;;;;;;7381979;19;20007;-69
2023/07/04 01:45:45;;;;;;;;;;;21.50;70.00;;;;;;7383663;19;20078;-70
2023/07/04 01:48:13;;;;;;;10.40;3.83;;;21.50;70.00;;;;;;7381162;19;19942;-70
2023/07/04 01:50:42;;;;;;;12.82;4.53;;;21.50;69.70;;;;;;7380330;19;20007;-70
2023/07/04 01:53:11;;;;;;;12.90;4.25;;;21.50;70.10;;;;;;7402189;19;20027;-70
2023/07/04 01:55:39;;;;;;;10.63;4.32;;;21.50;70.20;;;;;;7382472;19;20006;-70
2023/07/04 01:58:08;;;;;;;10.82;4.35;;;21.50;70.50;;;;;;7385116;19;20065;-70
2023/07/04 02:00:40;;;;;;;13.95;4.45;;;21.50;70.40;;;;;;7385406;19;20556;-70
2023/07/04 02:03:08;;;;;;;10.68;4.03;;;21.40;70.50;;;;;;7383607;19;20284;-69
2023/07/04 02:05:37;;;;;;;9.80;3.90;;;21.40;70.90;;;;;;7401875;19;20006;-69
2023/07/04 02:08:06;;;;;;;12.30;4.32;;;21.40;70.70;;;;;;7381092;19;20328;-69
2023/07/04 02:10:35;;;;;;;8.85;4.18;;;21.40;70.50;;;;;;7381134;19;20002;-70
2023/07/04 02:13:03;;;;;;;13.82;4.55;;;21.50;70.40;;;;;;7380910;19;20152;-70
2023/07/04 02:15:32;;;;;;;12.35;5.03;;;21.40;70.20;;;;;;7383729;19;20003;-70
2023/07/04 02:18:03;;;;;;;11.43;4.68;;;21.40;70.20;;;;;;7383585;19;20011;-70
2023/07/04 02:20:33;;;;;;;14.95;4.90;;;21.40;70.50;;;;;;7404300;19;20350;-70
2023/07/04 02:23:01;;;;;;;22.52;7.53;;;21.30;71.60;;;;;;7379638;19;20017;-70
2023/07/04 02:25:30;;;;;;;20.05;7.57;;;21.20;71.00;;;;;;7381516;19;20035;-69
2023/07/04 02:27:59;;;;;;;12.45;5.78;;;21.20;71.20;;;;;;7379952;19;20284;-70
2023/07/04 02:30:28;;;;;;;12.82;6.05;;;21.10;71.50;;;;;;7380786;19;20015;-69
2023/07/04 02:32:56;;;;;;;13.82;5.10;;;21.10;71.80;;;;;;7379130;19;20305;-69
2023/07/04 02:35:28;;;;;;;10.32;4.40;;;21.00;71.60;;;;;;7401427;19;20011;-70
2023/07/04 02:37:57;;;;;;;10.65;4.38;;;21.10;71.50;;;;;;7379837;19;20243;-70
2023/07/04 02:40:26;;;;;;;11.52;4.53;;;21.10;71.70;;;;;;7377227;19;20319;-69
2023/07/04 02:42:58;;;;;;;13.77;4.38;;;21.10;71.80;;;;;;7379292;19;20024;-69
2023/07/04 02:45:27;;;;;;;13.20;4.18;;;21.00;71.50;;;;;;7379484;19;20019;-69
2023/07/04 02:47:55;;;;;;;16.55;4.35;;;21.00;71.70;;;;;;7379051;19;20134;-69
2023/07/04 02:50:27;;;;;;;9.63;3.88;;;21.00;71.80;;;;;;7399263;19;20066;-69
2023/07/04 02:52:55;;;;;;;;;;;21.00;71.40;;;;;;7378789;19;20003;-70
2023/07/04 02:55:24;;;;;;;11.35;4.07;;;21.10;71.60;;;;;;7379878;19;19917;-70
2023/07/04 02:57:53;;;;;;;10.57;3.97;;;21.10;71.50;;;;;;7378866;19;20413;-70
2023/07/04 03:00:22;;;;;;;7.20;3.88;;;21.00;71.60;;;;;;7378755;19;19999;-70
2023/07/04 03:02:51;;;;;;;12.48;4.13;;;21.10;71.60;;;;;;7377785;19;20007;-70
2023/07/04 03:05:20;;;;;;;11.30;4.13;;;21.00;71.60;;;;;;7399767;19;20006;-70
2023/07/04 03:07:51;;;;;;;8.73;4.22;;;21.00;71.60;;;;;;7380817;19;20046;-69
2023/07/04 03:10:20;;;;;;;13.15;4.30;;;20.90;71.80;;;;;;7382389;19;20034;-69
2023/07/04 03:12:48;;;;;;;7.07;3.47;;;20.90;72.10;;;;;;7382671;19;20007;-70
2023/07/04 03:15:17;;;;;;;8.70;3.63;;;20.90;72.10;;;;;;7380497;19;20023;-70
2023/07/04 03:17:46;;;;;;;10.48;4.00;;;20.90;72.20;;;;;;7377605;19;20410;-70
2023/07/04 03:20:15;;;;;;;10.00;3.97;;;20.90;72.20;;;;;;7401947;19;20106;-70
2023/07/04 03:22:44;;;;;;;10.40;4.30;;;20.90;72.10;;;;;;7377928;19;20006;-70
2023/07/04 03:25:16;;;;;;;16.77;4.35;;;20.90;72.20;;;;;;7381841;19;20037;-69
2023/07/04 03:27:45;;;;;;;9.90;4.25;;;20.90;72.50;;;;;;7382085;19;20024;-69
2023/07/04 03:30:15;;;;;;;12.98;4.05;;;20.90;72.70;;;;;;7380968;19;20026;-71
2023/07/04 03:32:44;;;;;;;12.67;3.80;;;20.90;72.80;;;;;;7378627;19;20007;-70
2023/07/04 03:35:13;;;;;;;10.77;3.58;;;20.90;72.80;;;;;;7398329;19;20102;-69
2023/07/04 03:37:42;;;;;;;8.05;4.07;;;20.90;72.80;;;;;;7377976;19;20353;-69
2023/07/04 03:40:15;;;;;;;12.13;4.03;;;20.90;72.80;;;;;;7378479;19;20079;-69
2023/07/04 03:42:44;;;;;;;8.38;3.78;;;20.80;72.80;;;;;;7378481;19;20003;-71
2023/07/04 03:45:14;;;;;;;14.50;4.07;;;20.80;72.70;;;;;;7378602;19;20007;-71
2023/07/04 03:47:42;;;;;;;15.30;4.10;;;20.80;72.80;;;;;;7378070;19;20478;-71
2023/07/04 03:50:13;;;;;;;11.48;3.95;;;20.70;73.00;;;;;;7397806;19;20020;-72
2023/07/04 03:52:42;;;;;;;10.60;4.18;;;20.70;73.30;;;;;;7376179;19;20006;-71
2023/07/04 03:55:11;;;;;;;11.63;4.20;;;20.70;73.60;;;;;;7377544;19;20007;-71
2023/07/04 03:57:42;;;;;;;11.50;4.25;;;20.70;73.60;;;;;;7378013;19;20006;-71
2023/07/04 04:00:12;;;;;;;;;;;20.70;73.60;;;;;;7377463;19;20062;-71
2023/07/04 04:02:41;;;;;;;8.63;3.88;;;20.80;73.40;;;;;;7378029;19;19914;-71
2023/07/04 04:05:10;;;;;;;14.32;3.83;;;20.80;73.20;;;;;;7399465;19;20028;-71
2023/07/04 04:07:39;;;;;;;7.28;3.47;;;20.80;73.00;;;;;;7378312;19;19999;-71
2023/07/04 04:10:09;;;;;;;14.35;3.53;;;20.80;73.10;;;;;;7380521;19;20023;-71
2023/07/04 04:12:38;;;;;;;8.98;4.30;;;20.80;73.40;;;;;;7379884;19;20007;-71
2023/07/04 04:15:10;;;;;;;11.70;3.72;;;20.80;73.70;;;;;;7379886;19;20010;-71
2023/07/04 04:17:39;;;;;;;14.10;4.05;;;20.80;73.70;;;;;;7402541;19;20094;-71
2023/07/04 04:20:10;;;;;;;11.80;4.75;;;20.80;73.70;;;;;;7380343;19;20010;-71
2023/07/04 04:22:43;;;;;;;10.13;3.95;;;20.80;74.00;;;;;;7382682;19;20010;-71
2023/07/04 04:25:12;;;;;;;11.65;3.33;;;20.80;73.90;;;;;;7380266;19;20003;-71
2023/07/04 04:27:41;;;;;;;10.10;4.03;;;20.80;73.80;;;;;;7377674;19;20027;-72
2023/07/04 04:30:13;;;;;;;12.73;3.88;;;20.80;74.00;;;;;;7376908;19;20007;-71
2023/07/04 04:32:44;;;;;;;8.63;4.00;;;20.80;73.90;;;;;;7376918;19;20010;-72
2023/07/04 04:35:13;;;;;;;14.15;4.07;;;20.80;73.80;;;;;;7397189;19;20018;-71
2023/07/04 04:37:42;;;;;;;10.23;4.07;;;20.80;73.70;;;;;;7380073;19;20023;-71
2023/07/04 04:40:12;;;;;;;11.45;3.70;;;20.80;73.70;;;;;;7381025;19;20079;-71
2023/07/04 04:42:43;;;;;;;9.13;4.13;;;20.80;73.80;;;;;;7381006;19;20011;-71
2023/07/04 04:45:14;;;;;;;;;;;20.80;74.10;;;;;;7377825;19;20309;-71
2023/07/04 04:47:48;;;;;;;10.23;3.95;;;20.80;74.10;;;;;;7376419;19;19911;-71
2023/07/04 04:50:17;;;;;;;12.00;4.40;;;20.80;74.10;;;;;;7398429;19;20011;-71
2023/07/04 04:52:46;;;;;;;11.77;4.45;;;20.90;74.00;;;;;;7374955;19;20024;-71
2023/07/04 04:55:15;;;;;;;14.98;4.35;;;20.80;73.80;;;;;;7376127;19;20013;-71
2023/07/04 04:57:44;;;;;;;16.00;4.32;;;20.80;74.00;;;;;;7377306;19;20023;-71
2023/07/04 05:00:17;;;;;;;15.50;4.25;;;20.80;74.10;;;;;;7375431;19;20071;-72
2023/07/04 05:02:46;;;;;;;13.43;3.95;;;20.70;74.30;;;;;;7377173;19;20363;-72
2023/07/04 05:05:16;;;;;;;18.60;3.50;;;20.70;74.50;;;;;;7402294;19;20011;-71
2023/07/04 05:07:44;;;;;;;14.13;3.80;;;20.70;74.50;;;;;;7383296;19;20007;-71
2023/07/04 05:10:13;;;;;;;8.27;4.10;;;20.70;74.60;;;;;;7382843;19;20003;-71
2023/07/04 05:12:42;;;;;;;14.80;4.20;;;20.80;74.50;;;;;;7382621;19;20006;-71
2023/07/04 05:15:11;;;;;;;20.77;4.47;;;20.80;74.30;;;;;;7383772;19;20324;-71
2023/07/04 05:17:42;;;;;;;12.80;4.00;;;20.90;74.40;;;;;;7393575;19;20010;-71
2023/07/04 05:20:14;;;;;;;10.13;4.30;;;20.80;74.60;;;;;;7405436;19;20365;-71
2023/07/04 05:22:45;;;;;;;11.20;4.60;;;20.90;74.80;;;;;;7381633;19;20261;-70
2023/07/04 05:25:13;;;;;;;9.68;4.15;;;20.90;75.10;;;;;;7383891;19;20003;-71
2023/07/04 05:27:42;;;;;;;17.95;5.15;;;20.90;75.00;;;;;;7383452;19;20023;-71
2023/07/04 05:30:12;;;;;;;15.38;4.40;;;21.00;75.20;;;;;;7387086;19;20016;-71
2023/07/04 05:32:43;;;;;;;14.25;4.57;;;21.00;75.20;;;;;;7390519;19;20019;-71
2023/07/04 05:35:12;;;;;;;21.13;4.95;;;21.10;74.80;;;;;;7408698;19;20019;-71
2023/07/04 05:37:40;;;;;;;17.48;4.63;;;21.20;75.10;;;;;;7383547;19;20658;-71
2023/07/04 05:40:11;;;;;;;12.48;4.30;;;21.20;75.30;;;;;;7384325;19;20023;-71
2023/07/04 05:42:39;;;;;;;21.73;4.82;;;21.30;75.20;;;;;;7386118;19;20035;-71
2023/07/04 05:45:09;;;;;;;17.73;4.70;;;21.30;74.50;;;;;;7385689;19;20007;-71
2023/07/04 05:47:38;;;;;;;38.25;5.07;;;21.30;74.50;;;;;;7407384;19;20350;-71
2023/07/04 05:50:10;;;;;;;19.58;4.75;;;21.40;74.30;;;;;;7385234;19;19998;-71
2023/07/04 05:52:38;;;;;;;18.88;4.70;;;21.40;73.90;;;;;;7382000;19;20006;-71
2023/07/04 05:55:08;;;;;;;19.55;5.07;;;21.40;73.90;;;;;;7382261;19;20011;-71
2023/07/04 05:57:37;;;;;;;9.18;4.18;;;21.50;74.10;;;;;;7381515;19;20058;-71
2023/07/04 06:00:09;;;;;;;13.35;4.35;;;21.50;74.10;;;;;;7380417;19;20066;-71
2023/07/04 06:02:39;;;;;;;18.30;4.25;;;21.60;74.10;;;;;;7403222;19;20006;-71
2023/07/04 06:05:11;;;;;;;13.43;4.32;;;21.60;73.60;;;;;;7382082;19;20222;-71
2023/07/04 06:07:40;;;;;;;22.42;4.82;;;21.70;73.30;;;;;;7381247;19;20017;-71
2023/07/04 06:10:10;;;;;;;13.02;4.50;;;21.70;73.00;;;;;;7380814;19;20457;-71
2023/07/04 06:12:38;;;;;;;17.40;3.80;;;21.80;72.90;;;;;;7380324;19;20245;-71
2023/07/04 06:15:08;;;;;;;14.20;2.97;;;21.90;72.50;;;;;;7379910;19;20048;-71
2023/07/04 06:17:37;;;;;;;15.02;4.40;;;22.00;72.40;;;;;;7402495;19;20274;-70
2023/07/04 06:20:07;;;;;;;15.90;3.90;;;22.00;73.10;;;;;;7380935;19;20275;-70
2023/07/04 06:22:38;;;;;;;16.20;4.10;;;22.00;72.20;;;;;;7379420;19;20003;-71
2023/07/04 06:25:07;;;;;;;;;;;22.00;72.40;;;;;;7382042;19;20007;-71
2023/07/04 06:27:36;;;;;;;18.40;4.28;;;22.10;72.60;;;;;;7380687;19;20218;-70
2023/07/04 06:30:07;;;;;;;12.07;3.70;;;22.20;72.60;;;;;;7379359;19;20006;-70
2023/07/04 06:32:36;;;;;;;17.40;3.92;;;22.20;72.30;;;;;;7401886;19;20002;-71
2023/07/04 06:35:04;;;;;;;15.43;4.10;;;22.20;72.20;;;;;;7380551;19;20094;-70
2023/07/04 06:37:33;;;;;;;16.38;4.10;;;22.20;72.50;;;;;;7380263;19;20120;-70
2023/07/04 06:40:05;;;;;;;20.48;3.78;;;22.30;73.10;;;;;;7380974;19;20010;-70
2023/07/04 06:42:35;;;;;;;13.45;3.63;;;22.30;72.30;;;;;;7383202;19;20006;-71
2023/07/04 06:45:04;;;;;;;18.50;3.75;;;22.30;71.70;;;;;;7383761;19;20295;-70
2023/07/04 06:47:32;;;;;;;20.25;4.10;;;22.40;71.80;;;;;;7405254;19;20011;-70
2023/07/04 06:50:01;;;;;;;10.02;3.72;;;22.40;72.50;;;;;;7381473;19;20384;-71
2023/07/04 06:52:30;;;;;;;18.77;4.05;;;22.60;71.50;;;;;;7379732;19;20007;-71
2023/07/04 06:55:04;;;;;;;20.48;4.00;;;22.60;71.00;;;;;;7380669;19;20014;-71
2023/07/04 06:57:33;;;;;;;20.80;4.05;;;22.70;70.70;;;;;;7379678;19;20006;-71
2023/07/04 07:00:02;;;;;;;13.82;3.75;;;22.80;70.10;;;;;;7383541;19;20680;-70
2023/07/04 07:02:31;;;;;;;13.77;3.28;;;22.80;69.40;;;;;;7403591;19;20017;-70
2023/07/04 07:04:59;;;;;;;22.30;4.40;;;22.90;69.00;;;;;;7383305;19;20046;-70
2023/07/04 07:07:28;;;;;;;12.02;3.38;;;22.80;68.80;;;;;;7380046;19;20003;-70
2023/07/04 07:09:56;;;;;;;17.55;3.83;;;22.80;70.10;;;;;;7379396;19;20003;-71
2023/07/04 07:12:28;;;;;;;15.00;3.65;;;22.80;69.50;;;;;;7379729;19;20002;-71
2023/07/04 07:14:56;;;;;;;;;;;22.80;69.50;;;;;;7382792;19;20023;-71
2023/07/04 07:17:25;;;;;;;16.45;3.65;;;22.80;68.60;;;;;;7400832;19;20128;-71
2023/07/04 07:19:54;;;;;;;11.23;3.47;;;22.80;68.20;;;;;;7378980;19;20023;-71
2023/07/04 07:22:22;;;;;;;18.25;4.10;;;22.80;67.90;;;;;;7378054;19;20064;-70
2023/07/04 07:24:51;;;;;;;13.77;3.53;;;22.80;67.60;;;;;;7377784;19;20050;-70
2023/07/04 07:27:20;;;;;;;12.25;3.25;;;22.80;67.40;;;;;;7376509;19;20059;-70
2023/07/04 07:29:52;;;;;;;15.38;3.42;;;22.80;67.20;;;;;;7376820;19;20011;-70
2023/07/04 07:32:21;;;;;;;11.75;2.88;;;22.80;67.30;;;;;;7399903;19;19998;-70
2023/07/04 07:34:49;;;;;;;18.88;3.45;;;22.90;67.40;;;;;;7377955;19;20017;-70
2023/07/04 07:37:19;;;;;;;13.98;3.55;;;23.00;66.90;;;;;;7378231;19;20011;-70
2023/07/04 07:39:47;;;;;;;16.52;3.42;;;23.10;66.40;;;;;;7377467;19;20293;-71
2023/07/04 07:42:16;;;;;;;16.27;3.30;;;23.20;65.70;;;;;;7378754;19;20058;-71
2023/07/04 07:44:45;;;;;;;13.95;3.15;;;23.30;65.10;;;;;;7376443;19;20356;-71
2023/07/04 07:47:16;;;;;;;13.60;3.55;;;23.30;65.40;;;;;;7400348;19;20024;-70
2023/07/04 07:49:44;;;;;;;;;;;23.30;65.20;;;;;;7379072;19;20056;-71
2023/07/04 07:52:13;;;;;;;14.43;3.38;;;23.40;66.10;;;;;;7379499;19;19916;-71
2023/07/04 07:54:42;;;;;;;12.15;3.33;;;23.40;65.60;;;;;;7382184;19;20007;-70
2023/07/04 07:57:11;;;;;;;16.13;3.40;;;23.50;65.70;;;;;;7383288;19;20002;-71
2023/07/04 07:59:40;;;;;;;18.25;3.10;;;23.50;65.70;;;;;;7392771;19;20017;-70
2023/07/04 08:02:17;;;;;;;26.42;4.10;;;23.50;65.30;;;;;;7400625;19;20010;-71
2023/07/04 08:04:45;;;;;;;20.15;3.58;;;23.50;65.30;;;;;;7378786;19;20003;-70
2023/07/04 08:07:14;;;;;;;14.10;3.72;;;23.50;65.70;;;;;;7378452;19;20279;-71
2023/07/04 08:09:43;;;;;;;16.40;3.58;;;23.50;67.10;;;;;;7379764;19;20010;-71
2023/07/04 08:12:11;;;;;;;14.40;3.65;;;23.60;66.60;;;;;;7381638;19;20003;-71
2023/07/04 08:14:40;;;;;;;13.20;4.28;;;23.70;66.50;;;;;;7390091;19;20013;-71
2023/07/04 08:17:09;;;;;;;20.02;3.70;;;23.70;65.10;;;;;;7401791;19;20024;-71
2023/07/04 08:19:40;;;;;;;13.68;3.90;;;23.90;64.70;;;;;;7376602;19;20002;-71
2023/07/04 08:22:08;;;;;;;;;;;23.90;64.60;;;;;;7377048;19;20054;-71
2023/07/04 08:24:37;;;;;;;24.33;3.58;;;24.00;64.70;;;;;;7376955;19;19907;-71
2023/07/04 08:27:07;;;;;;;14.23;3.53;;;24.10;64.90;;;;;;7375951;19;20011;-71
2023/07/04 08:29:36;;;;;;;13.23;3.08;;;24.20;65.20;;;;;;7396874;19;20078;-71
2023/07/04 08:32:05;;;;;;;15.98;3.72;;;24.30;64.80;;;;;;7376936;19;20089;-72
2023/07/04 08:34:35;;;;;;;14.30;3.40;;;24.30;64.30;;;;;;7374590;19;20009;-71
2023/07/04 08:37:06;;;;;;;16.27;3.38;;;24.30;64.00;;;;;;7376173;19;19998;-71
2023/07/04 08:39:35;;;;;;;14.15;3.70;;;24.30;63.20;;;;;;7379880;19;20027;-71
2023/07/04 08:42:04;;;;;;;21.48;3.08;;;24.30;62.50;;;;;;7384504;19;20111;-70
2023/07/04 08:44:38;;;;;;;7.72;3.08;;;24.30;62.20;;;;;;7406721;19;20018;-71
2023/07/04 08:47:10;;;;;;;14.27;3.35;;;24.30;62.10;;;;;;7383579;19;20016;-71
2023/07/04 08:49:43;;;;;;;12.65;3.92;;;24.30;62.30;;;;;;7382988;19;20007;-71
2023/07/04 08:52:23;;;;;;;20.25;3.60;;;24.30;62.00;;;;;;7384911;19;20358;-71
2023/07/04 08:54:52;;;;;;;15.73;3.17;;;24.30;62.30;;;;;;7384402;19;20369;-71
2023/07/04 08:57:32;;;;;;;7.70;2.88;;;24.30;62.70;;;;;;7385902;19;20010;-71
2023/07/04 09:00:08;;;;;;;9.90;3.22;;;24.30;62.00;;;;;;7382379;19;19998;-70
2023/07/04 09:02:59;;;;;;;11.80;3.42;;;24.20;61.00;;;;;;7403313;19;20031;-71
2023/07/04 09:05:37;;;;;;;20.25;3.53;;;24.30;61.00;;;;;;7386803;19;20074;-71
2023/07/04 09:08:20;;;;;;;12.38;3.53;;;24.20;60.60;;;;;;7387094;19;19999;-71
2023/07/04 09:10:53;;;;;;;10.52;3.80;;;24.20;60.80;;;;;;7387874;19;20071;-71
2023/07/04 09:13:28;;;;;;;13.95;4.18;;;24.20;61.00;;;;;;7382795;19;20079;-71
2023/07/04 09:15:59;;;;;;;13.60;3.20;;;24.20;62.10;;;;;;7383550;19;20009;-70
2023/07/04 09:18:37;;;;;;;13.77;3.17;;;24.20;61.60;;;;;;7383640;19;20642;-71
2023/07/04 09:21:11;;;;;;;9.15;3.10;;;24.30;61.40;;;;;;7383164;19;20006;-71
2023/07/04 09:23:43;;;;;;;11.43;3.15;;;24.30;61.30;;;;;;7396818;19;20018;-71
2023/07/04 09:26:14;;;;;;;17.15;3.30;;;24.40;61.00;;;;;;7409356;19;20354;-71
2023/07/04 09:28:46;;;;;;;21.27;3.55;;;24.50;61.30;;;;;;7388419;19;20343;-71
2023/07/04 09:31:19;;;;;;;14.32;4.10;;;24.60;61.00;;;;;;7385400;19;20079;-71
2023/07/04 09:33:50;;;;;;;12.27;3.70;;;24.60;61.40;;;;;;7382637;19;20018;-70
2023/07/04 09:36:20;;;;;;;14.98;3.78;;;24.70;60.80;;;;;;7385666;19;20014;-70
2023/07/04 09:39:00;;;;;;;21.48;3.60;;;24.80;60.60;;;;;;7382471;19;20247;-71
2023/07/04 09:41:32;;;;;;;11.60;3.07;;;24.90;60.50;;;;;;7402133;19;20018;-71
2023/07/04 09:44:15;;;;;;;20.42;4.18;;;24.90;60.40;;;;;;7384227;19;20007;-71
2023/07/04 09:46:51;;;;;;;23.08;3.90;;;24.80;60.10;;;;;;7381765;19;20361;-70
2023/07/04 09:49:25;;;;;;;13.60;3.55;;;24.80;60.10;;;;;;7380545;19;20075;-70
2023/07/04 09:52:06;;;;;;;12.15;3.50;;;24.90;60.70;;;;;;7382044;19;20070;-71
2023/07/04 09:54:40;;;;;;;11.43;3.40;;;24.90;60.50;;;;;;7381530;19;20006;-71
2023/07/04 09:57:25;;;;;;;16.20;3.70;;;24.90;60.40;;;;;;7380702;19;20016;-71
2023/07/04 09:59:54;;;;;;;11.68;3.63;;;25.00;61.10;;;;;;7380716;19;20024;-71
2023/07/04 10:02:33;;;;;;;16.42;5.85;;;25.00;61.70;;;;;;7404244;19;20023;-71
2023/07/04 10:05:02;;;;;;;16.33;4.82;;;25.10;61.50;;;;;;7381644;19;20006;-71
2023/07/04 10:07:31;;;;;;;22.67;4.68;;;25.10;61.40;;;;;;7381562;19;20007;-71
2023/07/04 10:10:07;;;;;;;16.73;3.85;;;25.10;61.10;;;;;;7382903;19;20091;-71
2023/07/04 10:12:44;;;;;;;12.93;3.72;;;25.20;61.80;;;;;;7382602;19;20011;-71
2023/07/04 10:15:21;;;;;;;16.63;3.67;;;25.30;61.10;;;;;;7384510;19;20012;-71
2023/07/04 10:17:50;;;;;;;18.67;3.85;;;25.30;61.40;;;;;;7384329;19;20063;-71
2023/07/04 10:20:18;;;;;;;14.15;4.63;;;25.40;61.60;;;;;;7407447;19;20066;-71
2023/07/04 10:22:51;;;;;;;22.77;4.18;;;25.40;61.40;;;;;;7380629;19;20014;-72
2023/07/04 10:25:25;;;;;;;10.02;3.65;;;25.40;61.20;;;;;;7381758;19;20019;-71
2023/07/04 10:27:59;;;;;;;11.25;3.85;;;25.50;61.10;;;;;;7381603;19;20368;-71
2023/07/04 10:30:31;;;;;;;9.23;3.80;;;25.60;60.90;;;;;;7382530;19;20014;-71
2023/07/04 10:33:03;;;;;;;16.42;4.20;;;25.70;60.90;;;;;;7383772;19;20023;-70
2023/07/04 10:35:35;;;;;;;17.40;4.22;;;25.80;60.80;;;;;;7407383;19;20288;-70
2023/07/04 10:38:09;;;;;;;11.57;3.70;;;25.80;60.40;;;;;;7384126;19;20011;-71
2023/07/04 10:40:42;;;;;;;9.95;3.83;;;25.80;61.00;;;;;;7380653;19;20285;-70
2023/07/04 10:43:15;;;;;;;18.17;4.43;;;25.90;61.30;;;;;;7381172;19;20002;-71
2023/07/04 10:45:46;;;;;;;9.52;4.20;;;25.90;60.60;;;;;;7381655;19;20414;-72
2023/07/04 10:48:18;;;;;;;18.80;4.38;;;25.90;60.10;;;;;;7380875;19;20006;-71
2023/07/04 10:50:52;;;;;;;18.60;4.38;;;25.90;59.90;;;;;;7380701;19;20010;-71
2023/07/04 10:53:21;;;;;;;11.60;4.22;;;25.70;60.70;;;;;;7402258;19;20027;-71
2023/07/04 10:55:57;;;;;;;15.13;4.38;;;25.60;60.70;;;;;;7379238;19;20031;-71
2023/07/04 10:58:29;;;;;;;14.40;4.00;;;25.50;60.30;;;;;;7379756;19;20078;-71
2023/07/04 11:01:04;;;;;;;14.85;4.45;;;25.50;60.90;;;;;;7379326;19;20010;-70
2023/07/04 11:03:51;;;;;;;14.93;4.32;;;25.50;61.60;;;;;;7379944;19;20006;-70
2023/07/04 11:06:29;;;;;;;21.52;5.15;;;25.60;61.40;;;;;;7378517;19;20013;-70
2023/07/04 11:09:00;;;;;;;17.15;4.53;;;25.70;61.90;;;;;;7377461;19;20010;-70
2023/07/04 11:11:32;;;;;;;17.60;4.60;;;25.90;60.90;;;;;;7401703;19;20028;-70
2023/07/04 11:14:10;;;;;;;13.98;4.80;;;26.00;60.30;;;;;;7378395;19;20306;-70
2023/07/04 11:16:44;;;;;;;18.08;4.15;;;26.30;60.40;;;;;;7379091;19;20007;-70
2023/07/04 11:19:19;;;;;;;9.68;4.10;;;26.40;59.00;;;;;;7380078;19;20003;-71
2023/07/04 11:22:13;;;;;;;13.50;4.20;;;26.30;59.70;;;;;;7379703;19;20002;-72
2023/07/04 11:24:46;;;;;;;19.42;4.45;;;26.40;59.80;;;;;;7381973;19;20007;-71
2023/07/04 11:27:24;;;;;;;13.13;4.70;;;26.40;59.90;;;;;;7382001;19;20331;-71
2023/07/04 11:29:55;;;;;;;10.02;4.78;;;26.50;59.90;;;;;;7381517;19;20011;-71
2023/07/04 11:32:28;;;;;;;;;;;26.50;60.20;;;;;;7406458;19;20125;-72
2023/07/04 11:35:02;;;;;;;18.08;5.13;;;26.50;60.20;;;;;;7377453;19;19907;-71
2023/07/04 11:37:41;;;;;;;11.13;4.03;;;26.50;60.80;;;;;;7378574;19;20042;-71
2023/07/04 11:40:21;;;;;;;8.88;4.30;;;26.50;61.20;;;;;;7379185;19;20006;-71
2023/07/04 11:42:58;;;;;;;18.30;5.15;;;26.70;61.10;;;;;;7382067;19;20067;-71
2023/07/04 11:45:30;;;;;;;13.52;4.38;;;26.70;60.50;;;;;;7382737;19;20098;-71
2023/07/04 11:48:03;;;;;;;10.75;4.68;;;26.80;60.60;;;;;;7381272;19;20014;-71
2023/07/04 11:50:36;;;;;;;20.27;4.78;;;26.60;60.40;;;;;;7399485;19;20014;-71
2023/07/04 11:53:13;;;;;;;10.07;4.68;;;26.50;60.10;;;;;;7378356;19;20255;-70
2023/07/04 11:55:42;;;;;;;15.23;4.63;;;26.40;60.80;;;;;;7376325;19;20011;-71
2023/07/04 11:58:30;;;;;;;11.80;4.40;;;26.40;61.60;;;;;;7377706;19;20370;-72
2023/07/04 12:01:03;;;;;;;12.82;4.50;;;26.30;61.80;;;;;;7377749;19;20253;-71
2023/07/04 12:03:56;;;;;;;13.88;4.65;;;26.40;62.40;;;;;;7377151;19;20003;-71
2023/07/04 12:06:49;;;;;;;22.95;4.53;;;26.40;61.50;;;;;;7376725;19;20002;-71
2023/07/04 12:09:32;;;;;;;15.57;4.38;;;26.20;59.90;;;;;;7378031;19;20369;-71
2023/07/04 12:12:02;;;;;;;14.43;4.50;;;26.10;59.80;;;;;;7377675;19;19992;-71
2023/07/04 12:14:36;;;;;;;18.20;4.55;;;26.00;59.50;;;;;;7400714;19;20062;-71
2023/07/04 12:17:05;;;;;;;11.85;4.30;;;25.80;58.90;;;;;;7385259;19;20082;-71
2023/07/04 12:19:33;;;;;;;5.85;3.60;;;25.80;58.60;;;;;;7384451;19;19999;-70
2023/07/04 12:22:02;;;;;;;16.00;4.38;;;25.70;58.00;;;;;;7382918;19;20027;-71
2023/07/04 12:24:32;;;;;;;13.65;4.25;;;25.70;58.00;;;;;;7384960;19;20234;-71
2023/07/04 12:27:03;;;;;;;9.50;3.72;;;25.70;58.40;;;;;;7385278;19;20051;-70
2023/07/04 12:29:44;;;;;;;10.05;3.40;;;25.60;58.50;;;;;;7403989;19;20039;-70
2023/07/04 12:32:18;;;;;;;12.02;3.17;;;25.40;59.00;;;;;;7389064;19;20011;-70
2023/07/04 12:34:47;;;;;;;19.08;3.72;;;25.50;59.10;;;;;;7386253;19;20012;-71
2023/07/04 12:37:19;;;;;;;10.88;3.50;;;25.50;59.40;;;;;;7387187;19;20357;-71
2023/07/04 12:39:50;;;;;;;6.28;3.10;;;25.50;59.20;;;;;;7385578;19;20013;-71
2023/07/04 12:42:30;;;;;;;6.38;3.22;;;25.60;59.40;;;;;;7385984;19;20010;-71
2023/07/04 12:45:09;;;;;;;11.35;3.80;;;25.50;59.10;;;;;;7382038;19;20362;-71
2023/07/04 12:47:38;;;;;;;20.13;4.30;;;25.50;59.40;;;;;;7403784;19;20010;-71
2023/07/04 12:50:08;;;;;;;15.60;3.50;;;25.50;59.90;;;;;;7383987;19;20281;-71
2023/07/04 12:52:39;;;;;;;14.93;3.75;;;25.40;62.00;;;;;;7385005;19;20109;-70
2023/07/04 12:55:14;;;;;;;11.60;3.22;;;25.20;62.90;;;;;;7384825;19;20011;-71
2023/07/04 12:57:42;;;;;;;17.58;3.67;;;25.10;63.90;;;;;;7384962;19;20006;-71
2023/07/04 13:00:20;;;;;;;18.38;3.85;;;24.80;65.00;;;;;;7385814;19;20007;-70
2023/07/04 13:02:50;;;;;;;14.27;3.90;;;24.60;66.90;;;;;;7382137;19;20006;-70
2023/07/04 13:05:19;;;;;;;9.48;3.40;;;24.60;67.50;;;;;;7404409;19;20015;-71